Aberdeen, Pennsylvania
Current Conditions -  °F | °C
As of 6:56 AM on Tuesday 27 Jan 2015 (Local Time) from KMDT Reporting Station
Light Snow Light Snow  
Wind Chill: -9°   Ceiling: 4700
Heat Index: -3°   Visibility: 6mi
Dew Point: -7°   Wind: 13mph
Humidity: 78%   Direction: 330°NNW
Pressure: 29.77"   Gusts: NA
Location:  40.1674°N, 76.6045°W
Report Text: KMDT 271156Z 33011KT 6SM -SN BKN047 OVC100 M03/M07 A2977 RMK AO2 SLP087 4/004 P0000 60000 70003 T10331067 11033 21039 52009
Loading
Personal Weather Stations






























Interactive Weather Map New forecast layout! Learn more

10-Day Weather Forecast

Advertisements
Track Severe Weather on mobile